Time;durP1;ratioP1;P1;durP2;ratioP2;P2;SDS_P1;SDS_P2;PMS_P1;PMS_P2;Temp;Humidity;BMP_temperature;BMP_pressure;BME280_temperature;BME280_humidity;BME280_pressure;Samples;Min_cycle;Max_cycle;Signal;HPM_P1;HPM_P2
2021/09/24 00:00:32;;;;;;;33.70;15.17;;;16.20;98.50;;;;;;5134965;27;20464;-57
2021/09/24 00:02:59;;;;;;;228.47;169.77;;;16.10;98.10;;;;;;5131672;27;20465;-59
2021/09/24 00:05:25;;;;;;;44.13;24.50;;;16.10;99.90;;;;;;5115346;27;20465;-59
2021/09/24 00:07:52;;;;;;;28.93;14.90;;;16.10;99.10;;;;;;5115094;27;20478;-58
2021/09/24 00:10:21;;;;;;;35.53;15.67;;;16.10;98.50;;;;;;5119065;27;20464;-58
2021/09/24 00:12:48;;;;;;;49.47;28.23;;;16.10;98.40;;;;;;5136088;27;20463;-58
2021/09/24 00:15:17;;;;;;;43.93;24.50;;;16.00;98.30;;;;;;5135642;27;20458;-59
2021/09/24 00:17:46;;;;;;;17.73;9.70;;;16.00;98.40;;;;;;5135626;27;20474;-59
2021/09/24 00:20:14;;;;;;;23.50;8.93;;;16.00;98.40;;;;;;5135210;27;20462;-60
2021/09/24 00:22:41;;;;;;;31.47;14.20;;;16.00;98.60;;;;;;5134682;27;20991;-60
2021/09/24 00:25:09;;;;;;;25.60;14.77;;;16.00;98.80;;;;;;5135205;27;20459;-59
2021/09/24 00:27:36;;;;;;;26.10;11.97;;;15.90;99.10;;;;;;5135568;27;20463;-59
2021/09/24 00:30:04;;;;;;;30.27;16.73;;;15.90;99.20;;;;;;5135127;27;20464;-59
2021/09/24 00:32:30;;;;;;;33.93;16.73;;;15.90;99.50;;;;;;5135479;27;20940;-59
2021/09/24 00:35:01;;;;;;;28.90;16.00;;;15.90;99.70;;;;;;5135173;27;20463;-58
2021/09/24 00:37:28;;;;;;;26.53;12.60;;;15.90;99.80;;;;;;5135406;27;20459;-60
2021/09/24 00:39:55;;;;;;;25.30;12.30;;;15.90;99.90;;;;;;5134695;27;20467;-58
2021/09/24 00:42:22;;;;;;;29.90;13.53;;;15.90;99.90;;;;;;5134202;27;20455;-59
2021/09/24 00:44:50;;;;;;;24.93;14.53;;;15.90;99.90;;;;;;5135345;27;20463;-59
2021/09/24 00:47:18;;;;;;;48.37;29.87;;;15.90;99.90;;;;;;5134864;27;20804;-59
2021/09/24 00:49:47;;;;;;;38.93;20.43;;;15.90;99.90;;;;;;5134820;27;20478;-57
2021/09/24 00:52:17;;;;;;;42.33;21.60;;;15.80;99.90;;;;;;5134769;27;20459;-60
2021/09/24 00:54:47;;;;;;;38.97;18.67;;;15.80;99.90;;;;;;5121733;27;20493;-59
2021/09/24 00:57:15;;;;;;;35.80;15.73;;;15.80;99.90;;;;;;5113970;27;20447;-59
2021/09/24 00:59:41;;;;;;;36.90;21.00;;;15.80;99.90;;;;;;5114351;27;20809;-59
2021/09/24 01:02:09;;;;;;;34.70;17.27;;;15.70;99.90;;;;;;5114107;27;20470;-59
2021/09/24 01:04:36;;;;;;;34.03;16.60;;;15.80;99.90;;;;;;5113978;27;20469;-59
2021/09/24 01:07:04;;;;;;;35.47;18.53;;;15.80;99.90;;;;;;5113874;27;20476;-60
2021/09/24 01:09:34;;;;;;;26.93;14.70;;;15.80;99.90;;;;;;5114185;27;20810;-60
2021/09/24 01:12:01;;;;;;;40.50;22.37;;;15.80;99.90;;;;;;5113794;27;20479;-59
2021/09/24 01:14:30;;;;;;;404.07;293.83;;;15.80;99.90;;;;;;5114376;27;20475;-58
2021/09/24 01:16:57;;;;;;;91.40;62.10;;;15.80;99.90;;;;;;5113513;27;20475;-59
2021/09/24 01:19:25;;;;;;;28.97;17.60;;;15.90;99.90;;;;;;5113758;27;20471;-59
2021/09/24 01:21:53;;;;;;;19.30;10.83;;;16.00;99.90;;;;;;5113918;27;20791;-59
2021/09/24 01:24:20;;;;;;;19.50;11.70;;;16.00;99.90;;;;;;5113475;27;20456;-59
2021/09/24 01:26:48;;;;;;;23.50;13.20;;;16.00;99.90;;;;;;5114046;27;20802;-60
2021/09/24 01:29:16;;;;;;;34.97;19.73;;;16.00;99.90;;;;;;5112298;27;20471;-59
2021/09/24 01:31:43;;;;;;;31.97;13.70;;;16.00;99.90;;;;;;5112208;27;20590;-59
2021/09/24 01:34:10;;;;;;;23.37;10.70;;;16.00;99.90;;;;;;5113145;27;20460;-59
2021/09/24 01:36:37;;;;;;;31.73;13.17;;;15.90;99.90;;;;;;5113539;27;20988;-58
2021/09/24 01:39:08;;;;;;;21.17;10.97;;;15.90;99.90;;;;;;5113223;27;20483;-58
2021/09/24 01:41:38;;;;;;;28.30;11.20;;;15.90;99.90;;;;;;5113763;27;20460;-60
2021/09/24 01:44:05;;;;;;;141.47;95.47;;;15.90;99.90;;;;;;5113328;27;20465;-60
2021/09/24 01:46:32;;;;;;;38.33;24.30;;;15.90;99.90;;;;;;5113493;27;20551;-59
2021/09/24 01:48:58;;;;;;;35.13;22.00;;;16.00;99.90;;;;;;5113096;27;20471;-59
2021/09/24 01:51:25;;;;;;;23.23;9.40;;;16.00;99.90;;;;;;5113373;27;20456;-60
2021/09/24 01:53:52;;;;;;;40.57;24.10;;;15.90;99.90;;;;;;5113416;27;20468;-59
2021/09/24 01:56:23;;;;;;;28.90;17.03;;;15.90;99.90;;;;;;5113116;27;20464;-60
2021/09/24 01:58:50;;;;;;;34.73;15.50;;;15.90;99.90;;;;;;5113353;27;20479;-59
2021/09/24 02:01:17;;;;;;;23.90;14.30;;;15.90;99.90;;;;;;5112893;27;20471;-60
2021/09/24 02:03:44;;;;;;;21.23;12.07;;;15.90;99.90;;;;;;5113153;27;20469;-59
2021/09/24 02:06:11;;;;;;;29.80;16.33;;;15.90;99.90;;;;;;5112869;27;20465;-59
2021/09/24 02:08:38;;;;;;;35.70;22.33;;;15.90;99.90;;;;;;5113129;27;20475;-59
2021/09/24 02:11:05;;;;;;;47.77;26.40;;;15.80;99.90;;;;;;5113007;27;20786;-59
2021/09/24 02:13:34;;;;;;;56.97;29.93;;;15.80;99.90;;;;;;5113313;27;20460;-60
2021/09/24 02:16:01;;;;;;;24.70;15.17;;;15.70;99.90;;;;;;5112729;27;20469;-59
2021/09/24 02:18:28;;;;;;;32.83;21.23;;;15.70;99.90;;;;;;5113179;27;20479;-59
2021/09/24 02:20:54;;;;;;;38.50;27.50;;;15.70;99.90;;;;;;5112975;27;20468;-60
2021/09/24 02:23:21;;;;;;;23.30;12.50;;;15.80;99.90;;;;;;5112221;27;20969;-59
2021/09/24 02:25:49;;;;;;;22.53;11.90;;;15.70;99.90;;;;;;5113201;27;20464;-61
2021/09/24 02:28:16;;;;;;;36.57;20.30;;;15.70;99.90;;;;;;5112564;27;20856;-60
2021/09/24 02:30:44;;;;;;;644.80;511.23;;;15.70;99.90;;;;;;5112996;27;20950;-59
2021/09/24 02:33:11;;;;;;;768.60;626.47;;;15.70;99.90;;;;;;5112660;27;20475;-59
2021/09/24 02:35:41;;;;;;;380.57;277.60;;;16.00;99.90;;;;;;5112977;27;20621;-59
2021/09/24 02:38:08;;;;;;;53.37;34.70;;;16.30;99.90;;;;;;5132409;27;20460;-60
2021/09/24 02:40:35;;;;;;;32.63;16.60;;;16.40;99.90;;;;;;5132433;27;20465;-60
2021/09/24 02:43:02;;;;;;;30.03;17.00;;;16.50;99.90;;;;;;5132965;27;20467;-59
2021/09/24 02:45:29;;;;;;;22.97;16.30;;;16.40;99.90;;;;;;5133306;27;20474;-60
2021/09/24 02:47:57;;;;;;;29.20;10.40;;;16.40;99.90;;;;;;5133544;27;20971;-59
2021/09/24 02:50:24;;;;;;;26.47;12.83;;;16.40;99.90;;;;;;5132785;27;20459;-60
2021/09/24 02:52:51;;;;;;;35.93;19.13;;;16.30;99.90;;;;;;5133892;27;20963;-60
2021/09/24 02:55:20;;;;;;;22.93;10.33;;;16.20;99.90;;;;;;5133217;27;20463;-60
2021/09/24 02:57:47;;;;;;;26.80;12.80;;;16.20;99.90;;;;;;5133544;27;20512;-60
2021/09/24 03:00:14;;;;;;;21.10;10.80;;;16.10;99.90;;;;;;5132908;27;20481;-59
2021/09/24 03:02:41;;;;;;;27.27;9.20;;;16.00;99.90;;;;;;5133477;27;20465;-60
2021/09/24 03:05:11;;;;;;;26.67;11.23;;;16.00;99.90;;;;;;5132792;27;20465;-59
2021/09/24 03:07:38;;;;;;;23.40;11.40;;;16.00;99.90;;;;;;5133582;27;20472;-59
2021/09/24 03:10:06;;;;;;;17.23;8.77;;;15.90;99.90;;;;;;5133030;27;20463;-60
2021/09/24 03:12:33;;;;;;;20.67;9.33;;;15.90;99.90;;;;;;5133204;27;21254;-60
2021/09/24 03:15:00;;;;;;;23.00;9.50;;;15.90;99.90;;;;;;5133477;27;20465;-59
2021/09/24 03:17:26;;;;;;;26.57;9.13;;;15.90;99.90;;;;;;5132851;27;20474;-59
2021/09/24 03:19:53;;;;;;;25.30;6.10;;;15.80;99.90;;;;;;5133189;27;20478;-60
2021/09/24 03:22:21;;;;;;;18.53;9.13;;;15.80;99.90;;;;;;5132863;27;20483;-60
2021/09/24 03:24:48;;;;;;;16.97;7.80;;;15.80;99.90;;;;;;5133186;27;20980;-57
2021/09/24 03:27:15;;;;;;;19.17;9.43;;;15.70;99.90;;;;;;5132743;27;20976;-60
2021/09/24 03:29:42;;;;;;;23.40;7.97;;;15.70;99.90;;;;;;5133189;27;20467;-60
2021/09/24 03:32:09;;;;;;;15.33;6.83;;;15.70;99.90;;;;;;5133160;27;20474;-60
2021/09/24 03:34:36;;;;;;;23.17;9.13;;;15.70;99.90;;;;;;5132738;27;21222;-60
2021/09/24 03:37:03;;;;;;;26.30;6.83;;;15.70;99.90;;;;;;5136706;27;20458;-58
2021/09/24 03:39:31;;;;;;;16.60;6.70;;;15.70;99.90;;;;;;5136244;27;20477;-59
2021/09/24 03:41:58;;;;;;;19.70;7.90;;;15.70;99.90;;;;;;5136576;27;20459;-60
2021/09/24 03:44:25;;;;;;;21.27;7.10;;;15.80;99.90;;;;;;5136189;27;20474;-58
2021/09/24 03:46:52;;;;;;;14.07;5.23;;;15.70;99.90;;;;;;5136613;27;20459;-59
2021/09/24 03:49:19;;;;;;;18.30;7.70;;;15.70;99.90;;;;;;5136102;27;20991;-60
2021/09/24 03:51:46;;;;;;;22.60;6.37;;;15.70;99.90;;;;;;5136510;27;20797;-59
2021/09/24 03:54:12;;;;;;;18.63;6.03;;;15.70;99.90;;;;;;5136428;27;20464;-60
2021/09/24 03:56:43;;;;;;;16.70;6.47;;;15.70;99.90;;;;;;5136461;27;21681;-60
2021/09/24 03:59:09;;;;;;;18.50;5.70;;;15.70;99.90;;;;;;5136337;27;20972;-59
2021/09/24 04:01:36;;;;;;;22.77;7.87;;;15.60;99.90;;;;;;5135833;27;20452;-60
2021/09/24 04:04:03;;;;;;;22.53;7.60;;;15.70;99.90;;;;;;5136130;27;20971;-59
2021/09/24 04:06:30;;;;;;;18.97;5.93;;;15.70;99.90;;;;;;5135794;27;20482;-59
2021/09/24 04:08:57;;;;;;;17.20;6.03;;;15.60;99.90;;;;;;5136157;27;20467;-59
2021/09/24 04:11:26;;;;;;;16.10;6.53;;;15.70;99.90;;;;;;5135762;27;20472;-58
2021/09/24 04:13:54;;;;;;;19.97;6.50;;;15.70;99.90;;;;;;5136148;27;20534;-56
2021/09/24 04:16:21;;;;;;;17.87;7.37;;;15.70;99.90;;;;;;5135498;27;20995;-59
2021/09/24 04:18:48;;;;;;;18.50;7.23;;;15.70;99.90;;;;;;5135949;27;20471;-58
2021/09/24 04:21:15;;;;;;;13.93;5.77;;;15.70;99.90;;;;;;5135532;27;20467;-57
2021/09/24 04:23:42;;;;;;;19.63;5.50;;;15.70;99.90;;;;;;5135558;27;21266;-60
2021/09/24 04:26:09;;;;;;;16.90;4.83;;;15.70;99.90;;;;;;5135935;27;20489;-58
2021/09/24 04:28:38;;;;;;;15.90;5.57;;;15.80;99.90;;;;;;5135262;27;20486;-58
2021/09/24 04:31:06;;;;;;;19.13;6.30;;;15.70;99.90;;;;;;5135728;27;20471;-60
2021/09/24 04:33:34;;;;;;;12.33;5.43;;;15.70;99.90;;;;;;5135328;27;20463;-60
2021/09/24 04:36:01;;;;;;;21.53;7.50;;;15.60;99.90;;;;;;5135627;27;20463;-59
2021/09/24 04:38:27;;;;;;;16.40;5.57;;;15.70;99.90;;;;;;5135127;27;20809;-59
2021/09/24 04:40:54;;;;;;;18.57;6.13;;;15.70;99.90;;;;;;5135460;27;20977;-59
2021/09/24 04:43:21;;;;;;;19.13;7.87;;;15.70;99.90;;;;;;5135067;27;20818;-59
2021/09/24 04:45:48;;;;;;;15.60;4.97;;;15.70;99.90;;;;;;5135174;27;21044;-59
2021/09/24 04:48:16;;;;;;;24.60;5.20;;;15.70;99.90;;;;;;5135238;27;20463;-60
2021/09/24 04:50:43;;;;;;;24.13;6.20;;;15.70;99.90;;;;;;5134761;27;20466;-58
2021/09/24 04:53:10;;;;;;;14.17;5.23;;;15.70;99.90;;;;;;5135417;27;20463;-60
2021/09/24 04:55:37;;;;;;;15.07;6.07;;;15.60;99.90;;;;;;5134785;27;20953;-60
2021/09/24 04:58:03;;;;;;;16.33;5.83;;;15.60;99.90;;;;;;5135314;27;20467;-59
2021/09/24 05:00:30;;;;;;;16.13;6.27;;;15.50;99.90;;;;;;5134429;27;20467;-60
2021/09/24 05:02:57;;;;;;;17.73;5.90;;;15.50;99.90;;;;;;5135020;27;20463;-59
2021/09/24 05:05:25;;;;;;;17.53;5.90;;;15.50;99.90;;;;;;5134618;27;20843;-59
2021/09/24 05:07:52;;;;;;;32.03;8.50;;;15.50;99.90;;;;;;5135023;27;20477;-60
2021/09/24 05:10:19;;;;;;;16.30;6.50;;;15.50;99.90;;;;;;5134908;27;20455;-60
2021/09/24 05:12:46;;;;;;;20.63;5.77;;;15.50;99.90;;;;;;5134545;27;20452;-60
2021/09/24 05:15:13;;;;;;;14.53;5.47;;;15.50;99.90;;;;;;5134846;27;20965;-60
2021/09/24 05:17:40;;;;;;;12.00;4.60;;;15.50;99.90;;;;;;5134338;27;20807;-57
2021/09/24 05:20:08;;;;;;;15.77;5.43;;;15.50;99.90;;;;;;5134478;27;20793;-60
2021/09/24 05:22:36;;;;;;;17.20;5.03;;;15.50;99.90;;;;;;5134401;27;20485;-60
2021/09/24 05:25:04;;;;;;;18.03;6.07;;;15.50;99.90;;;;;;5134798;27;21016;-58
2021/09/24 05:27:30;;;;;;;21.60;6.43;;;15.50;99.90;;;;;;5134081;27;20813;-58
2021/09/24 05:29:57;;;;;;;16.87;4.80;;;15.50;99.90;;;;;;5134595;27;20459;-59
2021/09/24 05:32:24;;;;;;;19.63;4.53;;;15.50;99.90;;;;;;5134100;27;20464;-57
2021/09/24 05:34:51;;;;;;;16.20;5.90;;;15.50;99.90;;;;;;5134545;27;20495;-57
2021/09/24 05:37:18;;;;;;;23.43;7.10;;;15.50;99.90;;;;;;5134383;27;20494;-57
2021/09/24 05:39:46;;;;;;;23.40;7.23;;;15.50;99.90;;;;;;5133925;27;20474;-59
2021/09/24 05:42:13;;;;;;;12.90;5.83;;;15.50;99.90;;;;;;5134385;27;20474;-58
2021/09/24 05:44:41;;;;;;;17.53;6.13;;;15.50;99.90;;;;;;5133971;27;20467;-59
2021/09/24 05:47:08;;;;;;;23.67;6.57;;;15.60;99.90;;;;;;5134188;27;20459;-59
2021/09/24 05:49:34;;;;;;;19.00;5.23;;;15.50;99.90;;;;;;5133995;27;20467;-58
2021/09/24 05:52:02;;;;;;;19.40;5.20;;;15.50;99.90;;;;;;5134214;27;20463;-58
2021/09/24 05:54:29;;;;;;;14.53;4.77;;;15.50;99.90;;;;;;5133720;27;20483;-57
2021/09/24 05:56:57;;;;;;;19.03;5.00;;;15.50;99.90;;;;;;5134386;27;20477;-58
2021/09/24 05:59:24;;;;;;;20.93;6.50;;;15.60;99.90;;;;;;5133295;27;21180;-59
2021/09/24 06:01:51;;;;;;;13.03;5.53;;;15.60;99.90;;;;;;5133780;27;20448;-58
2021/09/24 06:04:19;;;;;;;14.03;6.10;;;15.60;99.90;;;;;;5133880;27;20468;-58
2021/09/24 06:06:46;;;;;;;15.83;5.83;;;15.50;99.90;;;;;;5133451;27;20524;-59
2021/09/24 06:09:13;;;;;;;14.40;5.20;;;15.50;99.90;;;;;;5133901;27;20471;-58
2021/09/24 06:11:40;;;;;;;14.00;5.13;;;15.60;99.90;;;;;;5133589;27;20460;-58
2021/09/24 06:14:09;;;;;;;12.00;4.90;;;15.50;99.90;;;;;;5134009;27;20877;-59
2021/09/24 06:16:36;;;;;;;19.80;7.23;;;15.50;99.90;;;;;;5133421;27;20467;-57
2021/09/24 06:19:03;;;;;;;17.07;5.53;;;15.60;99.90;;;;;;5133851;27;20470;-58
2021/09/24 06:21:30;;;;;;;14.50;6.67;;;15.50;99.90;;;;;;5133127;27;20463;-58
2021/09/24 06:23:57;;;;;;;22.73;5.97;;;15.60;99.90;;;;;;5133964;27;20806;-59
2021/09/24 06:26:25;;;;;;;15.20;6.20;;;15.60;99.90;;;;;;5133868;27;20464;-59
2021/09/24 06:28:52;;;;;;;18.83;5.77;;;15.60;99.90;;;;;;5133228;27;20462;-59
2021/09/24 06:31:20;;;;;;;15.27;5.50;;;15.70;99.90;;;;;;5133854;27;20793;-58
2021/09/24 06:33:47;;;;;;;15.47;5.70;;;15.60;99.90;;;;;;5133077;27;20478;-59
2021/09/24 06:36:17;;;;;;;22.00;6.53;;;15.70;99.90;;;;;;5133578;27;20468;-59
2021/09/24 06:38:45;;;;;;;13.20;4.07;;;15.70;99.90;;;;;;5133365;27;20468;-58
2021/09/24 06:41:12;;;;;;;14.53;4.20;;;15.60;99.90;;;;;;5133702;27;20464;-58
2021/09/24 06:43:39;;;;;;;19.13;5.70;;;15.70;99.90;;;;;;5133052;27;20464;-58
2021/09/24 06:46:06;;;;;;;14.73;4.67;;;15.70;99.90;;;;;;5133684;27;20562;-59
2021/09/24 06:48:34;;;;;;;15.73;5.53;;;15.70;99.90;;;;;;5133209;27;20463;-58
2021/09/24 06:51:01;;;;;;;12.00;4.77;;;15.60;99.90;;;;;;5133544;27;20462;-58
2021/09/24 06:53:28;;;;;;;20.37;7.37;;;15.70;99.90;;;;;;5133447;27;20466;-59
2021/09/24 06:55:57;;;;;;;22.43;6.27;;;15.70;99.90;;;;;;5133352;27;21197;-58
2021/09/24 06:58:24;;;;;;;18.23;6.10;;;15.70;99.90;;;;;;5133376;27;20459;-59
2021/09/24 07:00:51;;;;;;;16.20;6.83;;;15.70;99.90;;;;;;5133066;27;22633;-59
2021/09/24 07:03:17;;;;;;;19.50;6.27;;;15.70;99.90;;;;;;5133147;27;20460;-57
2021/09/24 07:05:46;;;;;;;12.20;6.00;;;15.70;99.90;;;;;;5132795;27;20470;-59
2021/09/24 07:08:12;;;;;;;16.00;4.63;;;15.80;99.90;;;;;;5133309;27;20470;-59
2021/09/24 07:10:39;;;;;;;12.83;4.40;;;15.70;99.90;;;;;;5136277;27;20804;-59
2021/09/24 07:13:06;;;;;;;17.07;5.77;;;15.80;99.90;;;;;;5137358;27;20478;-59
2021/09/24 07:15:33;;;;;;;16.57;5.80;;;15.80;99.90;;;;;;5136846;27;20459;-58
2021/09/24 07:18:00;;;;;;;23.03;5.13;;;15.70;99.90;;;;;;5137220;27;21151;-59
2021/09/24 07:20:27;;;;;;;12.90;4.10;;;15.80;99.90;;;;;;5136998;27;20466;-59
2021/09/24 07:22:55;;;;;;;12.67;4.67;;;15.80;99.90;;;;;;5136706;27;20454;-57
2021/09/24 07:25:22;;;;;;;16.30;5.00;;;15.80;99.90;;;;;;5137127;27;20470;-58
2021/09/24 07:27:49;;;;;;;15.90;5.80;;;15.80;99.90;;;;;;5136763;27;20474;-58
2021/09/24 07:30:15;;;;;;;25.03;5.40;;;15.90;99.90;;;;;;5136857;27;20468;-58
2021/09/24 07:32:42;;;;;;;18.40;4.80;;;15.80;99.90;;;;;;5136284;27;20460;-58
2021/09/24 07:35:10;;;;;;;19.50;5.03;;;15.90;99.90;;;;;;5137039;27;20467;-58
2021/09/24 07:37:36;;;;;;;15.70;4.30;;;15.90;99.90;;;;;;5136437;27;20478;-58
2021/09/24 07:40:06;;;;;;;26.73;5.67;;;15.90;99.90;;;;;;5136669;27;20473;-58
2021/09/24 07:42:33;;;;;;;17.37;5.60;;;15.90;99.90;;;;;;5136714;27;20463;-57
2021/09/24 07:45:00;;;;;;;20.40;5.80;;;16.00;99.90;;;;;;5136149;27;21222;-58
2021/09/24 07:47:27;;;;;;;19.47;6.03;;;16.10;99.90;;;;;;5136824;27;20473;-58
2021/09/24 07:49:53;;;;;;;17.60;5.27;;;16.20;99.90;;;;;;5136156;27;20984;-57
2021/09/24 07:52:20;;;;;;;14.43;5.10;;;16.20;99.90;;;;;;5136322;27;20472;-58
2021/09/24 07:54:47;;;;;;;12.47;4.00;;;16.20;99.90;;;;;;5135967;27;20508;-58
2021/09/24 07:57:15;;;;;;;12.07;4.50;;;16.20;99.90;;;;;;5136616;27;20459;-58
2021/09/24 07:59:43;;;;;;;22.00;5.13;;;16.20;99.90;;;;;;5135790;27;20816;-60
2021/09/24 08:02:10;;;;;;;18.47;4.30;;;16.20;99.90;;;;;;5136207;27;20467;-58
2021/09/24 08:04:37;;;;;;;18.40;4.90;;;16.30;99.90;;;;;;5135879;27;20859;-56
2021/09/24 08:07:06;;;;;;;19.80;4.70;;;16.40;99.90;;;;;;5136190;27;20467;-56
2021/09/24 08:09:33;;;;;;;15.33;4.43;;;16.40;99.90;;;;;;5136198;27;20992;-59
2021/09/24 08:12:00;;;;;;;14.43;4.37;;;16.40;99.90;;;;;;5135916;27;20459;-57
2021/09/24 08:14:28;;;;;;;11.50;4.30;;;16.50;99.90;;;;;;5136058;27;20953;-58
2021/09/24 08:16:55;;;;;;;13.60;4.20;;;16.50;99.90;;;;;;5135669;27;20801;-58
2021/09/24 08:19:22;;;;;;;13.37;3.73;;;16.60;99.90;;;;;;5135823;27;20961;-59
2021/09/24 08:21:49;;;;;;;16.03;4.47;;;16.50;99.90;;;;;;5134743;27;20470;-58
2021/09/24 08:24:16;;;;;;;15.00;4.70;;;16.60;99.90;;;;;;5135876;27;20543;-57
2021/09/24 08:26:43;;;;;;;13.40;4.30;;;16.70;99.90;;;;;;5135554;27;20463;-59
2021/09/24 08:29:10;;;;;;;12.97;5.10;;;16.70;99.90;;;;;;5135875;27;20464;-58
2021/09/24 08:31:38;;;;;;;11.10;4.50;;;16.70;99.90;;;;;;5135841;27;20451;-58
2021/09/24 08:34:05;;;;;;;8.20;3.80;;;16.80;99.90;;;;;;5135352;27;20478;-59
2021/09/24 08:36:33;;;;;;;17.60;5.50;;;16.90;99.90;;;;;;5135540;27;20470;-58
2021/09/24 08:39:01;;;;;;;16.77;4.23;;;16.90;99.90;;;;;;5135122;27;20984;-58
2021/09/24 08:41:29;;;;;;;9.30;4.20;;;17.00;99.90;;;;;;5135358;27;20538;-58
2021/09/24 08:43:57;;;;;;;13.93;3.67;;;17.10;99.90;;;;;;5134978;27;20520;-58
2021/09/24 08:46:24;;;;;;;13.10;4.50;;;17.20;99.90;;;;;;5135279;27;20538;-58
2021/09/24 08:48:53;;;;;;;13.57;4.40;;;17.20;99.90;;;;;;5134720;27;20468;-58
2021/09/24 08:51:20;;;;;;;14.03;5.63;;;17.40;99.90;;;;;;5135154;27;20460;-58
2021/09/24 08:53:47;;;;;;;13.53;4.53;;;17.40;99.90;;;;;;5135047;27;20460;-57
2021/09/24 08:56:15;;;;;;;10.50;5.20;;;17.40;99.90;;;;;;5135040;27;20471;-59
2021/09/24 08:58:41;;;;;;;9.07;4.10;;;17.40;99.80;;;;;;5134997;27;20474;-58
2021/09/24 09:01:09;;;;;;;14.90;5.57;;;17.50;99.90;;;;;;5134762;27;20488;-58
2021/09/24 09:03:41;;;;;;;20.27;5.57;;;17.60;99.90;;;;;;5134970;27;20463;-58
2021/09/24 09:06:12;;;;;;;17.90;4.93;;;17.60;99.70;;;;;;5134498;27;20466;-59
2021/09/24 09:08:38;;;;;;;13.63;4.37;;;17.70;99.60;;;;;;5135154;27;20463;-59
2021/09/24 09:11:08;;;;;;;13.30;5.17;;;17.70;99.60;;;;;;5134586;27;20451;-58
2021/09/24 09:13:39;;;;;;;18.27;5.37;;;17.80;99.70;;;;;;5134847;27;21010;-57
2021/09/24 09:16:08;;;;;;;12.57;5.07;;;17.70;99.30;;;;;;5134579;27;20458;-59
2021/09/24 09:18:37;;;;;;;10.67;4.70;;;17.80;99.50;;;;;;5134444;27;20472;-59
2021/09/24 09:21:06;;;;;;;14.43;5.20;;;17.80;99.40;;;;;;5134322;27;20451;-60
2021/09/24 09:23:36;;;;;;;19.27;4.63;;;17.80;99.20;;;;;;5134869;27;20801;-59
2021/09/24 09:26:07;;;;;;;19.20;5.17;;;17.90;99.10;;;;;;5134447;27;20474;-58
2021/09/24 09:28:38;;;;;;;12.87;4.07;;;17.90;99.20;;;;;;5134508;27;20532;-60
2021/09/24 09:31:19;;;;;;;14.23;4.43;;;18.00;99.30;;;;;;5134045;27;20466;-59
2021/09/24 09:33:46;;;;;;;15.37;4.63;;;18.10;99.30;;;;;;5133266;27;20817;-55
2021/09/24 09:36:21;;;;;;;14.20;4.17;;;18.20;99.20;;;;;;5134486;27;20963;-59
2021/09/24 09:38:50;;;;;;;19.40;6.00;;;18.20;98.90;;;;;;5133876;27;20562;-57
2021/09/24 09:41:19;;;;;;;21.90;5.33;;;18.20;99.00;;;;;;5134539;27;20792;-59
2021/09/24 09:43:48;;;;;;;13.93;5.10;;;18.20;99.20;;;;;;5134324;27;20464;-59
2021/09/24 09:46:17;;;;;;;10.83;4.27;;;18.20;99.10;;;;;;5133884;27;20464;-59
2021/09/24 09:49:00;;;;;;;11.07;5.00;;;18.30;99.10;;;;;;5134010;27;20478;-58
2021/09/24 09:51:27;;;;;;;10.10;4.03;;;18.30;99.10;;;;;;5134589;27;20520;-59
2021/09/24 09:53:56;;;;;;;15.80;4.70;;;18.30;99.10;;;;;;5134028;27;20455;-58
2021/09/24 09:56:34;;;;;;;14.27;3.90;;;18.30;98.80;;;;;;5134120;27;20466;-60
2021/09/24 09:59:01;;;;;;;12.67;4.50;;;18.40;99.10;;;;;;5134014;27;20455;-59
2021/09/24 10:01:28;;;;;;;12.37;3.63;;;18.40;99.70;;;;;;5134059;27;20460;-57
2021/09/24 10:03:55;;;;;;;7.03;3.37;;;18.40;99.20;;;;;;5133183;27;20472;-59
2021/09/24 10:06:26;;;;;;;13.13;3.77;;;18.50;99.30;;;;;;5133963;27;20477;-59
2021/09/24 10:08:56;;;;;;;12.20;4.27;;;18.50;99.40;;;;;;5133524;27;20525;-59
2021/09/24 10:11:30;;;;;;;15.10;4.23;;;18.60;99.30;;;;;;5134071;27;20466;-59
2021/09/24 10:13:59;;;;;;;18.53;4.00;;;18.50;99.30;;;;;;5133443;27;20804;-58
2021/09/24 10:16:28;;;;;;;9.60;3.70;;;18.60;99.30;;;;;;5133820;27;20462;-60
2021/09/24 10:18:55;;;;;;;11.03;5.70;;;18.60;99.30;;;;;;5133506;27;20551;-59
2021/09/24 10:21:23;;;;;;;14.00;5.70;;;18.60;99.90;;;;;;5133696;27;20505;-60
2021/09/24 10:23:50;;;;;;;9.73;4.60;;;18.70;99.70;;;;;;5133422;27;20463;-60
2021/09/24 10:26:25;;;;;;;20.10;6.20;;;18.70;99.70;;;;;;5133827;27;20538;-59
2021/09/24 10:29:01;;;;;;;13.90;5.33;;;18.80;99.70;;;;;;5133136;27;20477;-59
2021/09/24 10:31:29;;;;;;;11.20;4.57;;;18.80;99.70;;;;;;5133620;27;20990;-59
2021/09/24 10:34:00;;;;;;;14.60;4.90;;;18.90;99.80;;;;;;5133359;27;20546;-60
2021/09/24 10:36:43;;;;;;;9.40;4.30;;;18.90;99.90;;;;;;5131802;27;20960;-59
2021/09/24 10:39:43;;;;;;;13.50;5.73;;;19.00;99.90;;;;;;5112798;27;21145;-58
2021/09/24 10:42:47;;;;;;;18.90;7.03;;;19.00;99.90;;;;;;5120699;27;20528;-59
2021/09/24 10:45:32;;;;;;;15.40;4.73;;;19.10;99.90;;;;;;5116256;27;20445;-60
2021/09/24 10:48:15;;;;;;;15.40;6.57;;;19.10;99.80;;;;;;5125244;27;20491;-60
2021/09/24 10:51:07;;;;;;;17.03;7.63;;;19.10;99.90;;;;;;5137546;27;20965;-60
2021/09/24 10:53:48;;;;;;;11.17;5.57;;;19.10;99.80;;;;;;5137633;27;20465;-60
2021/09/24 10:56:35;;;;;;;9.30;5.87;;;19.20;99.90;;;;;;5137716;27;20470;-60
2021/09/24 10:59:25;;;;;;;10.47;4.20;;;19.10;99.80;;;;;;5132274;27;21212;-59
2021/09/24 11:01:52;;;;;;;6.03;3.50;;;19.20;99.90;;;;;;5136251;27;20548;-60
2021/09/24 11:04:19;;;;;;;12.47;3.77;;;19.20;99.90;;;;;;5137267;27;20586;-60
2021/09/24 11:06:49;;;;;;;14.13;4.00;;;19.20;99.90;;;;;;5136570;27;20455;-60
2021/09/24 11:09:17;;;;;;;8.00;3.63;;;19.20;99.90;;;;;;5137280;27;20829;-60
2021/09/24 11:11:46;;;;;;;15.23;6.30;;;19.20;99.90;;;;;;5127249;27;20480;-60
2021/09/24 11:14:32;;;;;;;13.27;5.00;;;19.20;99.90;;;;;;5116729;27;20783;-60
2021/09/24 11:17:01;;;;;;;9.30;4.10;;;19.10;99.90;;;;;;5116309;27;20559;-59
2021/09/24 11:19:31;;;;;;;9.77;4.10;;;19.10;99.90;;;;;;5116276;27;20464;-60
2021/09/24 11:22:04;;;;;;;9.77;5.10;;;19.10;99.90;;;;;;5115872;27;20811;-59
2021/09/24 11:24:33;;;;;;;13.70;5.00;;;19.10;99.90;;;;;;5116493;27;20460;-60
2021/09/24 11:27:03;;;;;;;8.90;4.30;;;19.10;99.90;;;;;;5115846;27;20471;-60
2021/09/24 11:29:31;;;;;;;15.00;7.30;;;19.10;99.90;;;;;;5116236;27;20484;-60
2021/09/24 11:32:09;;;;;;;10.90;7.30;;;19.10;99.90;;;;;;5117304;27;20464;-60
2021/09/24 11:34:56;;;;;;;8.87;4.70;;;19.10;99.90;;;;;;5128708;27;20468;-60
2021/09/24 11:37:24;;;;;;;16.43;9.97;;;19.10;99.90;;;;;;5126662;27;20472;-59
2021/09/24 11:39:59;;;;;;;9.80;6.57;;;19.20;99.90;;;;;;5133130;27;20484;-60
2021/09/24 11:42:28;;;;;;;11.73;8.30;;;19.10;99.90;;;;;;5135821;27;20959;-59
2021/09/24 11:44:58;;;;;;;14.10;8.60;;;19.10;99.90;;;;;;5136178;27;20778;-60
2021/09/24 11:47:27;;;;;;;15.23;9.67;;;19.10;99.90;;;;;;5135809;27;21000;-59
2021/09/24 11:49:56;;;;;;;18.37;15.37;;;19.10;99.90;;;;;;5135874;27;20459;-60
2021/09/24 11:52:24;;;;;;;15.23;6.90;;;19.10;99.90;;;;;;5135886;27;20953;-59
2021/09/24 11:54:50;;;;;;;15.83;11.60;;;19.00;99.90;;;;;;5135822;27;20463;-60
2021/09/24 11:57:18;;;;;;;14.50;10.60;;;19.00;99.90;;;;;;5134864;27;20463;-60
2021/09/24 11:59:46;;;;;;;14.80;9.60;;;19.00;99.90;;;;;;5135386;27;20957;-60
2021/09/24 12:02:23;;;;;;;27.50;18.50;;;19.00;99.90;;;;;;5135632;27;20460;-60
2021/09/24 12:04:58;;;;;;;20.27;16.67;;;19.00;99.90;;;;;;5135247;27;20463;-60
2021/09/24 12:07:26;;;;;;;16.83;14.50;;;19.00;99.90;;;;;;5133636;27;20463;-60
2021/09/24 12:09:57;;;;;;;23.37;18.07;;;19.00;99.90;;;;;;5135306;27;20526;-60
2021/09/24 12:12:24;;;;;;;14.60;10.60;;;19.00;99.90;;;;;;5135407;27;20879;-60
2021/09/24 12:14:56;;;;;;;20.90;17.47;;;19.10;99.90;;;;;;5130845;27;20452;-60
2021/09/24 12:17:25;;;;;;;23.53;16.43;;;19.10;99.90;;;;;;5130291;27;20452;-60
2021/09/24 12:19:52;;;;;;;43.73;32.60;;;19.10;99.90;;;;;;5135173;27;20542;-60
2021/09/24 12:22:20;;;;;;;16.50;12.53;;;19.10;99.90;;;;;;5135125;27;20475;-60
2021/09/24 12:24:47;;;;;;;13.20;11.10;;;19.20;99.90;;;;;;5135252;27;20463;-60
2021/09/24 12:27:19;;;;;;;7.50;4.23;;;19.20;99.90;;;;;;5135392;27;20468;-60
2021/09/24 12:29:47;;;;;;;21.37;16.67;;;19.30;99.90;;;;;;5124745;27;20472;-60
2021/09/24 12:32:15;;;;;;;18.43;11.13;;;19.30;99.90;;;;;;5132329;27;20484;-60
2021/09/24 12:34:46;;;;;;;29.43;22.83;;;19.20;99.90;;;;;;5135015;27;20463;-59
2021/09/24 12:37:14;;;;;;;13.87;11.37;;;19.20;99.90;;;;;;5126021;27;20516;-60
2021/09/24 12:39:43;;;;;;;9.60;5.27;;;19.20;99.90;;;;;;5134902;27;20467;-60